Dades meteomassalio
Diari Summary for Marc 14, 2017 Units:  English    Metric   Both
« Previous Day
Next Day »
Diari Semanal Mensual Anual Personalitzat
  Maxima: Minima: Mijana:
Temperatura: TemperatureC °F 6.1 °F 11.7 °F
Rosada: DewpointC °F 4.9 °F 8.3 °F
Humitat: Humidity % 55 % 81 %
Velocitat del vent: WindSpeedKMH mph 0.0 mph 3.8 mph
Racha vent: WindSpeedGustKMH mph - -
Vent:- - West
Pressio: PressurehPa in 1027.0 in -
Pluja: 0.3 in    
Historical Graphs
 
 
Tabular Data for Marc 14, 2017
Time Temperature Dew Point Pressure Wind Wind Speed Wind Gust Humidity Rainfall Rate (Hourly) solar Conditions
TemperatureC °F DewpointC °F PressurehPa in Calm     Humidity % HourlyPrecipMM in SolarRadiationWatts/m^2 W/m2 Conditions
00:00 11.0 °F 8.1 °F 1028.7 in Calm     82 % 0.0 in 0.0 W/m2 CLR
00:05 10.9 °F 8.1 °F 1028.7 in Calm     83 % 0.0 in 0.0 W/m2 RA
00:10 10.6 °F 7.8 °F 1028.7 in Calm     83 % 0.0 in 0.0 W/m2 CLR
00:15 10.4 °F 7.8 °F 1028.7 in Calm     84 % 0.0 in 0.0 W/m2 CLR
00:20 10.2 °F 7.8 °F 1028.7 in Calm     85 % 0.0 in 0.0 W/m2 CLR
00:25 10.0 °F 7.8 °F 1028.7 in Calm     86 % 0.0 in 0.0 W/m2 CLR
00:30 9.8 °F 7.6 °F 1028.7 in Calm     86 % 0.0 in 0.0 W/m2 CLR
00:35 9.7 °F 7.6 °F 1028.7 in Calm     87 % 0.0 in 0.0 W/m2 CLR
00:40 9.5 °F 7.4 °F 1028.7 in Calm     87 % 0.0 in 0.0 W/m2 CLR
00:45 9.3 °F 7.3 °F 1028.7 in Calm     87 % 0.0 in 0.0 W/m2 CLR
00:50 9.2 °F 7.3 °F 1028.7 in Calm     88 % 0.0 in 0.0 W/m2 CLR
00:55 9.1 °F 7.2 °F 1028.7 in Calm     88 % 0.0 in 0.0 W/m2 CLR
01:00 8.9 °F 7.2 °F 1028.7 in Calm     89 % 0.0 in 0.0 W/m2 CLR
01:05 8.7 °F 7.0 °F 1028.7 in Calm     89 % 0.0 in 0.0 W/m2 CLR
01:10 8.7 °F 7.1 °F 1028.7 in Calm     90 % 0.0 in 0.0 W/m2 CLR
01:15 8.7 °F 7.1 °F 1028.7 in Calm     90 % 0.0 in 0.0 W/m2 CLR
01:20 8.4 °F 6.7 °F 1029.0 in Calm     89 % 0.0 in 0.0 W/m2 CLR
01:21 8.4 °F 6.9 °F 1029.0 in Calm     90 % 0.0 in 0.0 W/m2 CLR
01:26 8.3 °F 6.7 °F 1029.0 in Calm     90 % 0.0 in 0.0 W/m2 CLR
01:31 8.2 °F 6.7 °F 1029.0 in Calm     90 % 0.0 in 0.0 W/m2 CLR
01:36 8.2 °F 6.8 °F 1029.0 in Calm     91 % 0.0 in 0.0 W/m2 CLR
01:41 8.2 °F 6.8 °F 1029.0 in Calm     91 % 0.0 in 0.0 W/m2 CLR
01:46 8.1 °F 6.7 °F 1029.0 in Calm     91 % 0.0 in 0.0 W/m2 CLR
01:51 8.1 °F 6.7 °F 1028.7 in Calm     91 % 0.0 in 0.0 W/m2 CLR
01:56 8.1 °F 6.7 °F 1028.7 in Calm     91 % 0.0 in 0.0 W/m2 CLR
02:01 8.1 °F 6.7 °F 1028.7 in Calm     91 % 0.0 in 0.0 W/m2 CLR
02:06 8.0 °F 6.6 °F 1028.3 in Calm     91 % 0.0 in 0.0 W/m2 CLR
02:11 8.1 °F 6.8 °F 1028.3 in Calm     92 % 0.0 in 0.0 W/m2 CLR
02:16 8.0 °F 6.8 °F 1028.3 in Calm     92 % 0.0 in 0.0 W/m2 CLR
02:21 8.0 °F 6.8 °F 1028.3 in Calm     92 % 0.0 in 0.0 W/m2 CLR
02:26 7.9 °F 6.5 °F 1028.3 in Calm     91 % 0.0 in 0.0 W/m2 CLR
02:31 7.8 °F 6.4 °F 1028.7 in Calm     91 % 0.0 in 0.0 W/m2 CLR
02:36 7.7 °F 6.5 °F 1028.3 in Calm     92 % 0.0 in 0.0 W/m2 CLR
02:41 7.8 °F 6.6 °F 1028.7 in Calm     92 % 0.0 in 0.0 W/m2 CLR
02:46 7.8 °F 6.6 °F 1028.7 in Calm     92 % 0.0 in 0.0 W/m2 CLR
02:51 7.9 °F 6.7 °F 1028.7 in Calm     92 % 0.0 in 0.0 W/m2 CLR
02:56 7.9 °F 6.7 °F 1028.7 in WSW 1.6 mph 1.6 mph 92 % 0.0 in 0.0 W/m2 CLR
03:01 7.9 °F 6.7 °F 1029.0 in WSW 5.6 mph 5.6 mph 92 % 0.0 in 0.0 W/m2 CLR
03:06 8.0 °F 6.8 °F 1029.0 in WSW 6.4 mph 6.4 mph 92 % 0.0 in 0.0 W/m2 CLR
03:11 8.3 °F 7.2 °F 1029.0 in WSW 7.4 mph 7.4 mph 93 % 0.0 in 0.0 W/m2 CLR
03:16 8.4 °F 7.2 °F 1029.0 in WSW 5.6 mph 5.6 mph 92 % 0.0 in 0.0 W/m2 CLR
03:21 8.6 °F 7.6 °F 1029.0 in WSW 7.4 mph 7.4 mph 93 % 0.0 in 0.0 W/m2 CLR
03:26 8.8 °F 7.6 °F 1029.0 in WSW 7.4 mph 7.4 mph 92 % 0.0 in 0.0 W/m2 CLR
03:31 8.9 °F 7.7 °F 1029.0 in West 5.6 mph 5.6 mph 92 % 0.0 in 0.0 W/m2 CLR
03:36 9.1 °F 7.9 °F 1029.0 in Calm     92 % 0.0 in 0.0 W/m2 CLR
03:41 9.2 °F 8.0 °F 1029.0 in Calm     92 % 0.0 in 0.0 W/m2 CLR
03:46 9.2 °F 7.8 °F 1028.7 in Calm     91 % 0.0 in 0.0 W/m2 CLR
03:51 9.2 °F 7.8 °F 1028.7 in Calm     91 % 0.0 in 0.0 W/m2 CLR
03:56 9.1 °F 7.7 °F 1028.7 in Calm     91 % 0.0 in 0.0 W/m2 CLR
04:01 9.1 °F 7.7 °F 1028.7 in Calm     91 % 0.0 in 0.0 W/m2 CLR
04:06 9.1 °F 7.7 °F 1028.7 in NW 6.4 mph 6.4 mph 91 % 0.0 in 0.0 W/m2 CLR
04:11 9.2 °F 7.8 °F 1028.7 in WNW 5.6 mph 5.6 mph 91 % 0.0 in 0.0 W/m2 CLR
04:16 9.2 °F 7.6 °F 1028.7 in WSW 5.6 mph 5.6 mph 90 % 0.0 in 0.0 W/m2 CLR
04:21 9.2 °F 7.6 °F 1028.7 in Calm     90 % 0.0 in 0.0 W/m2 CLR
04:26 9.1 °F 7.6 °F 1029.0 in WSW 7.4 mph 7.4 mph 90 % 0.0 in 0.0 W/m2 CLR
04:31 9.1 °F 7.5 °F 1029.0 in WSW 3.7 mph 3.7 mph 90 % 0.0 in 0.0 W/m2 CLR
04:36 9.0 °F 7.4 °F 1029.0 in Calm     90 % 0.0 in 0.0 W/m2 CLR
04:42 8.9 °F 7.3 °F 1029.3 in Calm     90 % 0.0 in 0.0 W/m2 CLR
04:47 8.9 °F 7.3 °F 1029.3 in Calm     90 % 0.0 in 0.0 W/m2 CLR
04:52 8.8 °F 7.3 °F 1029.3 in Calm   0.3 mph 90 % 0.0 in 0.0 W/m2 CLR
04:57 8.8 °F 7.3 °F 1029.3 in Calm     90 % 0.0 in 0.0 W/m2 CLR
05:02 8.8 °F 7.4 °F 1029.3 in Calm     91 % 0.0 in 0.0 W/m2 CLR
05:07 8.8 °F 7.2 °F 1029.3 in Calm     90 % 0.0 in 0.0 W/m2 CLR
05:12 8.7 °F 7.2 °F 1029.3 in Calm     90 % 0.0 in 0.0 W/m2 CLR
05:17 8.7 °F 7.1 °F 1029.3 in Calm     90 % 0.0 in 0.0 W/m2 CLR
05:22 8.6 °F 7.2 °F 1029.7 in Calm     91 % 0.0 in 0.0 W/m2 CLR
05:27 8.5 °F 7.1 °F 1029.7 in WSW 6.4 mph 6.4 mph 91 % 0.0 in 0.0 W/m2 CLR
05:32 8.4 °F 7.1 °F 1029.7 in Calm     91 % 0.0 in 0.0 W/m2 CLR
05:37 8.4 °F 7.0 °F 1029.7 in Calm     91 % 0.0 in 0.0 W/m2 CLR
05:42 8.4 °F 7.0 °F 1030.0 in Calm     91 % 0.0 in 0.0 W/m2 CLR
05:47 8.4 °F 7.0 °F 1029.7 in Calm     91 % 0.0 in 0.0 W/m2 CLR
05:52 8.3 °F 6.9 °F 1029.7 in Calm     91 % 0.0 in 0.0 W/m2 CLR
05:57 8.2 °F 6.8 °F 1029.7 in Calm     91 % 0.0 in 0.0 W/m2 CLR
06:02 8.2 °F 6.8 °F 1030.0 in Calm     91 % 0.0 in 0.0 W/m2 CLR
06:07 7.9 °F 6.6 °F 1030.0 in Calm     91 % 0.0 in 0.0 W/m2 CLR
06:12 7.8 °F 6.4 °F 1030.0 in Calm     91 % 0.0 in 0.0 W/m2 CLR
06:17 7.6 °F 6.2 °F 1030.0 in Calm     91 % 0.0 in 0.0 W/m2 CLR
06:22 7.3 °F 5.9 °F 1030.0 in Calm     91 % 0.0 in 0.0 W/m2 CLR
06:27 7.3 °F 5.9 °F 1030.0 in Calm     91 % 0.0 in 0.0 W/m2 CLR
06:32 7.1 °F 5.9 °F 1030.0 in Calm     92 % 0.0 in 0.0 W/m2 CLR
06:37 7.2 °F 5.9 °F 1030.4 in Calm     92 % 0.0 in 0.0 W/m2 CLR
06:47 7.2 °F 5.9 °F 1030.4 in Calm     92 % 0.0 in 0.0 W/m2 CLR
06:52 7.0 °F 5.8 °F 1030.4 in Calm     92 % 0.0 in 0.0 W/m2 CLR
06:57 6.8 °F 5.6 °F 1030.4 in Calm     92 % 0.0 in 0.0 W/m2 CLR
07:02 6.7 °F 5.4 °F 1030.4 in Calm     92 % 0.0 in 0.0 W/m2 OVC
07:07 6.6 °F 5.4 °F 1030.4 in Calm     92 % 0.0 in 0.0 W/m2 OVC
07:12 6.5 °F 5.3 °F 1030.7 in Calm     92 % 0.0 in 0.0 W/m2 OVC
07:17 6.4 °F 5.2 °F 1030.7 in Calm     92 % 0.0 in 7.0 W/m2 OVC
07:22 6.3 °F 5.1 °F 1030.7 in Calm     92 % 0.0 in 11.0 W/m2 BKN
07:27 6.3 °F 5.1 °F 1030.7 in Calm     92 % 0.0 in 14.0 W/m2 BKN
07:32 6.2 °F 4.9 °F 1030.7 in Calm     92 % 0.0 in 21.0 W/m2 BKN
07:37 6.2 °F 5.1 °F 1030.7 in Calm     93 % 0.0 in 26.0 W/m2 BKN
07:42 6.1 °F 5.1 °F 1030.7 in Calm     93 % 0.0 in 33.0 W/m2 BKN
07:47 6.2 °F 5.1 °F 1031.0 in WSW 5.6 mph 5.6 mph 93 % 0.0 in 42.0 W/m2 BKN
07:52 6.5 °F 5.4 °F 1030.7 in West 1.9 mph   93 % 0.0 in 51.0 W/m2 SCT
07:57 6.8 °F 5.8 °F 1030.7 in Calm     93 % 0.0 in 58.0 W/m2 SCT
08:02 6.8 °F 5.8 °F 1030.7 in Calm     93 % 0.0 in 67.0 W/m2 FEW
08:07 6.7 °F 5.7 °F 1031.0 in Calm     93 % 0.0 in 81.0 W/m2 FEW
08:12 6.9 °F 5.8 °F 1031.0 in Calm     93 % 0.0 in 90.0 W/m2 CLR
08:17 7.1 °F 6.0 °F 1031.0 in Calm     93 % 0.3 in 105.0 W/m2 RA
08:22 7.1 °F 6.1 °F 1031.0 in SW 5.6 mph 5.6 mph 93 % 0.3 in 84.0 W/m2 CLR
08:27 7.3 °F 6.2 °F 1031.4 in Calm     93 % 0.3 in 114.0 W/m2 CLR
08:32 7.5 °F 6.4 °F 1031.4 in Calm     93 % 0.3 in 155.0 W/m2 CLR
08:33 7.5 °F 6.4 °F 1031.4 in Calm     93 % 0.3 in 151.0 W/m2 CLR
08:38 7.8 °F 6.7 °F 1031.4 in Calm     93 % 0.3 in 102.0 W/m2 CLR
08:43 7.9 °F 6.9 °F 1031.4 in Calm     93 % 0.3 in 109.0 W/m2 CLR
08:48 7.9 °F 6.9 °F 1031.7 in NW 1.6 mph   93 % 0.3 in 111.0 W/m2 CLR
08:53 8.2 °F 7.2 °F 1031.4 in WNW 9.3 mph 9.3 mph 93 % 0.3 in 195.0 W/m2 CLR
08:58 8.6 °F 7.6 °F 1031.7 in Calm     93 % 0.3 in 207.0 W/m2 CLR
09:03 8.9 °F 7.7 °F 1031.4 in NW 5.6 mph 5.6 mph 92 % 0.3 in 206.0 W/m2 CLR
09:08 9.2 °F 8.0 °F 1031.4 in WNW 8.0 mph 8.0 mph 92 % 0.3 in 283.0 W/m2 CLR
09:13 9.5 °F 7.9 °F 1031.4 in NW 14.8 mph 14.8 mph 90 % 0.3 in 294.0 W/m2 CLR
09:18 9.7 °F 8.0 °F 1031.7 in WNW 9.3 mph 9.3 mph 89 % 0.0 in 179.0 W/m2 CLR
09:23 9.7 °F 7.8 °F 1031.7 in NW 13.0 mph 13.0 mph 88 % 0.0 in 178.0 W/m2 CLR
09:28 9.8 °F 7.9 °F 1031.7 in NW 6.4 mph 6.4 mph 88 % 0.0 in 144.0 W/m2 CLR
09:33 9.8 °F 7.9 °F 1032.1 in NW 18.5 mph 18.5 mph 88 % 0.0 in 135.0 W/m2 CLR
09:38 9.8 °F 7.7 °F 1031.7 in NNW 11.1 mph 11.1 mph 87 % 0.0 in 116.0 W/m2 CLR
09:43 9.8 °F 7.8 °F 1032.1 in WNW 5.6 mph 5.6 mph 87 % 0.0 in 151.0 W/m2 CLR
09:48 9.9 °F 7.8 °F 1032.1 in NW 16.7 mph 16.7 mph 87 % 0.0 in 141.0 W/m2 CLR
09:53 9.9 °F 7.8 °F 1032.1 in NW 11.3 mph 11.3 mph 87 % 0.0 in 207.0 W/m2 CLR
09:58 10.0 °F 7.9 °F 1032.1 in NNW 9.7 mph 9.7 mph 87 % 0.0 in 230.0 W/m2 CLR
10:03 10.1 °F 7.9 °F 1032.1 in WNW 13.0 mph 13.0 mph 86 % 0.0 in 250.0 W/m2 CLR
10:08 10.2 °F 8.0 °F 1032.1 in WNW 11.1 mph 11.1 mph 86 % 0.0 in 202.0 W/m2 CLR
10:13 10.2 °F 8.0 °F 1032.1 in NW 13.0 mph 13.0 mph 86 % 0.0 in 195.0 W/m2 CLR
10:18 10.3 °F 8.1 °F 1032.1 in WNW 11.1 mph 11.1 mph 86 % 0.0 in 269.0 W/m2 CLR
10:23 10.4 °F 8.2 °F 1032.1 in NNW 13.0 mph 13.0 mph 86 % 0.0 in 306.0 W/m2 CLR
10:28 10.7 °F 8.4 °F 1032.1 in WNW 11.3 mph 11.3 mph 86 % 0.0 in 285.0 W/m2 CLR
10:33 10.7 °F 8.3 °F 1032.1 in WNW 14.5 mph 14.5 mph 85 % 0.0 in 494.0 W/m2 CLR
10:38 10.9 °F 8.5 °F 1032.1 in West 14.5 mph 14.5 mph 85 % 0.0 in 397.0 W/m2 CLR
10:43 11.0 °F 8.4 °F 1032.1 in WNW 11.1 mph 11.1 mph 84 % 0.0 in 302.0 W/m2 CLR
10:48 11.2 °F 8.6 °F 1031.7 in NW 9.3 mph 9.3 mph 84 % 0.0 in 552.0 W/m2 CLR
10:53 11.3 °F 8.6 °F 1031.7 in West 13.0 mph 13.0 mph 83 % 0.0 in 311.0 W/m2 CLR
10:58 11.3 °F 8.7 °F 1031.7 in WNW 12.9 mph 12.9 mph 84 % 0.0 in 599.0 W/m2 CLR
11:03 11.6 °F 8.8 °F 1031.7 in WSW 13.0 mph 13.0 mph 83 % 0.0 in 568.0 W/m2 CLR
11:08 11.8 °F 8.8 °F 1031.7 in WSW 14.8 mph 14.8 mph 82 % 0.0 in 589.0 W/m2 CLR
11:13 12.0 °F 9.2 °F 1031.4 in West 14.8 mph 14.8 mph 83 % 0.0 in 599.0 W/m2 CLR
11:18 12.3 °F 9.1 °F 1031.4 in West 9.3 mph 9.3 mph 81 % 0.0 in 612.0 W/m2 CLR
11:23 12.6 °F 9.6 °F 1031.0 in WSW 9.3 mph 9.3 mph 82 % 0.0 in 605.0 W/m2 CLR
11:28 12.7 °F 9.3 °F 1031.0 in WSW 11.1 mph 11.1 mph 80 % 0.0 in 631.0 W/m2 CLR
11:33 12.7 °F 9.6 °F 1031.0 in SSW 7.4 mph 7.4 mph 81 % 0.0 in 626.0 W/m2 CLR
11:38 13.1 °F 9.7 °F 1031.0 in Calm   0.2 mph 80 % 0.0 in 638.0 W/m2 CLR
11:43 13.3 °F 9.8 °F 1031.4 in West 7.4 mph 7.4 mph 79 % 0.0 in 647.0 W/m2 CLR
11:48 13.7 °F 10.1 °F 1031.0 in SW 9.3 mph 9.3 mph 79 % 0.0 in 656.0 W/m2 CLR
11:53 13.8 °F 10.1 °F 1031.0 in WNW 11.1 mph 11.1 mph 78 % 0.0 in 673.0 W/m2 CLR
11:58 13.8 °F 10.1 °F 1031.0 in SW 9.3 mph 9.3 mph 78 % 0.0 in 693.0 W/m2 CLR
12:03 14.2 °F 10.4 °F 1031.0 in WSW 5.6 mph 5.6 mph 78 % 0.0 in 679.0 W/m2 CLR
12:08 14.2 °F 10.1 °F 1031.0 in WSW 9.3 mph 9.3 mph 76 % 0.0 in 679.0 W/m2 CLR
12:13 14.2 °F 9.8 °F 1030.7 in SW 18.5 mph 18.5 mph 75 % 0.0 in 689.0 W/m2 CLR
12:18 14.3 °F 10.3 °F 1030.7 in WSW 14.8 mph 14.8 mph 77 % 0.0 in 682.0 W/m2 CLR
12:33 14.7 °F 10.3 °F 1030.7 in SW 9.3 mph 9.3 mph 75 % 0.0 in 708.0 W/m2 CLR
12:38 14.9 °F 10.1 °F 1030.7 in SW 13.0 mph 13.0 mph 73 % 0.0 in 744.0 W/m2 CLR
12:43 15.1 °F 10.4 °F 1030.7 in WNW 11.3 mph 11.3 mph 74 % 0.0 in 650.0 W/m2 CLR
12:53 14.9 °F 9.9 °F 1030.4 in West 14.8 mph 14.8 mph 72 % 0.0 in 459.0 W/m2 CLR
12:58 15.0 °F 10.4 °F 1030.4 in SW 13.0 mph 13.0 mph 74 % 0.0 in 731.0 W/m2 CLR
13:03 15.2 °F 10.2 °F 1030.4 in WNW 11.1 mph 11.1 mph 72 % 0.0 in 726.0 W/m2 CLR
13:08 15.4 °F 10.2 °F 1030.4 in West 11.3 mph 11.3 mph 71 % 0.0 in 786.0 W/m2 CLR
13:13 15.6 °F 10.3 °F 1030.0 in SW 7.4 mph 7.4 mph 71 % 0.0 in 740.0 W/m2 CLR
13:18 15.7 °F 10.0 °F 1030.0 in WSW 11.1 mph 11.1 mph 69 % 0.0 in 751.0 W/m2 CLR
13:23 15.9 °F 10.6 °F 1030.0 in WNW 1.9 mph   71 % 0.0 in 821.0 W/m2 CLR
13:28 16.1 °F 10.6 °F 1030.0 in NNW 11.1 mph 11.1 mph 70 % 0.0 in 824.0 W/m2 CLR
13:33 16.3 °F 11.0 °F 1030.0 in WSW 5.6 mph   71 % 0.0 in 828.0 W/m2 CLR
13:38 16.5 °F 10.8 °F 1029.7 in NW 13.0 mph 13.0 mph 69 % 0.0 in 775.0 W/m2 CLR
13:43 16.1 °F 10.2 °F 1029.7 in NNW 5.6 mph 5.6 mph 68 % 0.0 in 330.0 W/m2 CLR
13:48 16.1 °F 10.6 °F 1029.7 in West 13.0 mph 13.0 mph 70 % 0.0 in 784.0 W/m2 CLR
13:53 15.9 °F 10.1 °F 1029.3 in West 11.3 mph 11.3 mph 68 % 0.0 in 190.0 W/m2 CLR
13:58 15.8 °F 9.7 °F 1029.7 in SW 5.6 mph 5.6 mph 67 % 0.0 in 260.0 W/m2 CLR
14:03 16.3 °F 10.2 °F 1029.3 in SW 5.6 mph   67 % 0.0 in 773.0 W/m2 CLR
14:08 16.7 °F 10.5 °F 1029.3 in WNW 9.7 mph 9.7 mph 67 % 0.0 in 288.0 W/m2 CLR
14:13 16.6 °F 10.2 °F 1029.3 in SW 11.3 mph 11.3 mph 66 % 0.0 in 788.0 W/m2 CLR
14:23 16.4 °F 10.7 °F 1029.0 in WNW 13.0 mph 13.0 mph 69 % 0.0 in 264.0 W/m2 CLR
14:28 16.3 °F 10.6 °F 1029.0 in WNW 11.3 mph 11.3 mph 69 % 0.0 in 677.0 W/m2 CLR
14:33 16.6 °F 10.6 °F 1028.7 in NW 13.0 mph 13.0 mph 68 % 0.0 in 659.0 W/m2 CLR
14:38 16.7 °F 10.3 °F 1028.7 in NNW 14.8 mph 14.8 mph 66 % 0.0 in 638.0 W/m2 CLR
14:43 16.8 °F 9.9 °F 1028.7 in West 14.8 mph 14.8 mph 64 % 0.0 in 650.0 W/m2 CLR
14:48 16.8 °F 9.9 °F 1028.7 in WNW 4.8 mph 4.8 mph 64 % 0.0 in 626.0 W/m2 CLR
14:53 17.0 °F 10.1 °F 1028.7 in West 11.1 mph 11.1 mph 64 % 0.0 in 628.0 W/m2 CLR
14:58 17.2 °F 10.6 °F 1028.7 in WNW 3.7 mph   65 % 0.0 in 615.0 W/m2 CLR
15:03 17.6 °F 10.4 °F 1028.3 in WSW 6.4 mph 6.4 mph 63 % 0.0 in 621.0 W/m2 CLR
15:08 17.8 °F 10.2 °F 1028.3 in SW 8.0 mph 8.0 mph 61 % 0.0 in 601.0 W/m2 CLR
15:13 17.7 °F 9.8 °F 1028.3 in West 7.4 mph 7.4 mph 60 % 0.0 in 596.0 W/m2 CLR
15:18 17.8 °F 9.9 °F 1028.3 in WSW 7.4 mph 7.4 mph 60 % 0.0 in 589.0 W/m2 CLR
15:19 17.8 °F 9.9 °F 1028.3 in WSW 7.4 mph 7.4 mph 60 % 0.0 in 589.0 W/m2 CLR
15:24 17.8 °F 9.9 °F 1028.0 in West 9.7 mph 11.4 mph 60 % 0.0 in 573.0 W/m2 CLR
15:29 17.7 °F 9.6 °F 1028.0 in West 11.1 mph 11.1 mph 59 % 0.0 in 568.0 W/m2 CLR
15:34 17.7 °F 10.6 °F 1028.0 in NNW 11.1 mph 11.1 mph 63 % 0.0 in 554.0 W/m2 CLR
15:39 17.9 °F 9.8 °F 1028.0 in NW 13.0 mph 13.0 mph 59 % 0.0 in 545.0 W/m2 CLR
15:44 17.9 °F 9.8 °F 1028.0 in West 14.8 mph 14.8 mph 59 % 0.0 in 533.0 W/m2 CLR
15:49 18.1 °F 9.9 °F 1028.0 in WSW 5.6 mph 5.6 mph 59 % 0.0 in 522.0 W/m2 CLR
15:54 18.2 °F 9.2 °F 1027.7 in West 11.1 mph 11.1 mph 56 % 0.0 in 504.0 W/m2 CLR
15:59 18.1 °F 9.7 °F 1027.7 in West 9.3 mph 9.3 mph 58 % 0.0 in 494.0 W/m2 CLR
16:04 18.3 °F 9.9 °F 1027.7 in SW 7.4 mph 7.4 mph 58 % 0.0 in 480.0 W/m2 CLR
16:09 18.3 °F 10.2 °F 1027.7 in NW 9.7 mph 9.7 mph 59 % 0.0 in 454.0 W/m2 CLR
16:14 18.3 °F 10.1 °F 1027.7 in NW 4.8 mph 4.8 mph 59 % 0.0 in 461.0 W/m2 CLR
16:19 18.4 °F 10.2 °F 1027.7 in WNW 9.3 mph 9.3 mph 59 % 0.0 in 443.0 W/m2 CLR
16:24 18.3 °F 10.7 °F 1027.7 in NW 13.0 mph 13.0 mph 61 % 0.0 in 427.0 W/m2 CLR
16:29 18.2 °F 9.6 °F 1027.7 in Calm     57 % 0.0 in 420.0 W/m2 CLR
16:34 18.3 °F 10.7 °F 1027.3 in NNW 14.5 mph 14.5 mph 61 % 0.0 in 406.0 W/m2 CLR
16:39 18.3 °F 10.9 °F 1027.3 in NW 9.3 mph 9.3 mph 62 % 0.0 in 387.0 W/m2 CLR
16:44 18.4 °F 10.3 °F 1027.3 in Calm     59 % 0.0 in 374.0 W/m2 CLR
16:49 18.7 °F 10.5 °F 1027.3 in West 9.3 mph 9.3 mph 59 % 0.0 in 364.0 W/m2 CLR
16:54 18.7 °F 10.7 °F 1027.3 in NW 6.4 mph 6.4 mph 60 % 0.0 in 348.0 W/m2 CLR
16:59 18.7 °F 10.5 °F 1027.3 in WNW 9.3 mph 9.3 mph 59 % 0.0 in 332.0 W/m2 CLR
17:04 18.5 °F 10.1 °F 1027.3 in Calm     58 % 0.0 in 313.0 W/m2 CLR
17:09 18.6 °F 10.2 °F 1027.3 in West 7.4 mph 7.4 mph 58 % 0.0 in 304.0 W/m2 CLR
17:14 18.6 °F 9.9 °F 1027.3 in WNW 11.3 mph 11.3 mph 57 % 0.0 in 290.0 W/m2 CLR
17:19 18.4 °F 9.8 °F 1027.3 in West 8.0 mph 8.0 mph 57 % 0.0 in 271.0 W/m2 CLR
17:24 18.3 °F 9.1 °F 1027.3 in Calm     55 % 0.0 in 257.0 W/m2 CLR
17:29 18.5 °F 10.3 °F 1027.3 in NW 5.6 mph 5.6 mph 59 % 0.0 in 239.0 W/m2 CLR
17:34 18.4 °F 10.0 °F 1027.3 in Calm     58 % 0.0 in 227.0 W/m2 CLR
17:39 18.5 °F 9.8 °F 1027.3 in Calm     57 % 0.0 in 202.0 W/m2 CLR
17:44 18.6 °F 9.6 °F 1027.0 in Calm     56 % 0.0 in 185.0 W/m2 CLR
17:49 18.7 °F 9.4 °F 1027.3 in Calm     55 % 0.0 in 169.0 W/m2 CLR
17:54 18.8 °F 10.1 °F 1027.0 in Calm     57 % 0.0 in 149.0 W/m2 CLR
17:59 18.7 °F 10.3 °F 1027.0 in Calm     58 % 0.0 in 132.0 W/m2 CLR
18:04 18.7 °F 10.2 °F 1027.0 in WNW 1.9 mph 1.9 mph 58 % 0.0 in 116.0 W/m2 CLR
18:09 18.6 °F 9.9 °F 1027.0 in Calm     57 % 0.0 in 100.0 W/m2 CLR
18:14 18.4 °F 10.6 °F 1027.0 in Calm     60 % 0.0 in 86.0 W/m2 CLR
18:19 18.3 °F 10.4 °F 1027.0 in Calm     60 % 0.0 in 62.0 W/m2 FEW
18:24 18.1 °F 9.9 °F 1027.0 in Calm     59 % 0.0 in 53.0 W/m2 SCT
18:29 18.1 °F 9.4 °F 1027.0 in Calm     57 % 0.0 in 46.0 W/m2 SCT
18:34 17.9 °F 9.8 °F 1027.3 in Calm     59 % 0.0 in 35.0 W/m2 BKN
18:39 17.8 °F 9.9 °F 1027.3 in Calm     60 % 0.0 in 26.0 W/m2 BKN
18:44 17.7 °F 10.1 °F 1027.3 in Calm     61 % 0.0 in 18.0 W/m2 BKN
18:49 17.2 °F 9.9 °F 1027.3 in Calm     62 % 0.0 in 14.0 W/m2 BKN
18:54 16.7 °F 9.9 °F 1027.3 in Calm     64 % 0.0 in 9.0 W/m2 BKN
18:59 16.3 °F 9.7 °F 1027.3 in Calm     65 % 0.0 in 5.0 W/m2 OVC
19:04 15.9 °F 9.8 °F 1027.3 in Calm     67 % 0.0 in 0.0 W/m2 OVC
19:09 15.7 °F 9.6 °F 1027.3 in Calm     67 % 0.0 in 0.0 W/m2 OVC
19:14 15.5 °F 9.6 °F 1027.7 in Calm     68 % 0.0 in 0.0 W/m2 OVC
19:19 15.4 °F 9.5 °F 1027.7 in Calm     68 % 0.0 in 0.0 W/m2 CLR
19:24 15.2 °F 9.8 °F 1027.7 in Calm     70 % 0.0 in 0.0 W/m2 CLR
19:29 14.9 °F 9.7 °F 1027.7 in Calm     71 % 0.0 in 0.0 W/m2 CLR
19:34 14.7 °F 9.9 °F 1027.7 in Calm     73 % 0.0 in 0.0 W/m2 CLR
19:39 14.3 °F 9.8 °F 1027.7 in Calm     74 % 0.0 in 0.0 W/m2 CLR
19:44 14.1 °F 9.7 °F 1027.7 in Calm     75 % 0.0 in 0.0 W/m2 CLR
19:49 13.9 °F 9.7 °F 1028.0 in Calm     76 % 0.0 in 0.0 W/m2 CLR
19:54 13.6 °F 9.8 °F 1028.0 in Calm     78 % 0.0 in 0.0 W/m2 CLR
19:59 13.3 °F 9.7 °F 1028.0 in Calm     79 % 0.0 in 0.0 W/m2 CLR
20:04 12.9 °F 9.6 °F 1028.0 in Calm     80 % 0.0 in 0.0 W/m2 CLR
20:09 12.7 °F 9.5 °F 1028.0 in Calm     81 % 0.0 in 0.0 W/m2 CLR
20:14 12.3 °F 9.3 °F 1028.0 in Calm     82 % 0.0 in 0.0 W/m2 CLR
20:19 12.0 °F 9.2 °F 1028.0 in Calm     83 % 0.0 in 0.0 W/m2 CLR
20:24 11.8 °F 9.2 °F 1028.3 in Calm     84 % 0.0 in 0.0 W/m2 CLR
20:29 11.7 °F 9.1 °F 1028.3 in Calm     84 % 0.0 in 0.0 W/m2 CLR
20:34 11.6 °F 9.1 °F 1028.3 in Calm     85 % 0.0 in 0.0 W/m2 CLR
20:39 11.4 °F 8.9 °F 1028.3 in Calm     85 % 0.0 in 0.0 W/m2 CLR
20:44 11.2 °F 8.8 °F 1028.3 in Calm     85 % 0.0 in 0.0 W/m2 CLR
20:49 11.1 °F 8.8 °F 1028.3 in Calm     86 % 0.0 in 0.0 W/m2 CLR
20:54 10.8 °F 8.6 °F 1028.3 in Calm     86 % 0.0 in 0.0 W/m2 CLR
21:00 10.7 °F 8.6 °F 1028.3 in Calm     87 % 0.0 in 0.0 W/m2 CLR
21:05 10.5 °F 8.4 °F 1028.7 in Calm     87 % 0.0 in 0.0 W/m2 CLR
21:10 10.3 °F 8.3 °F 1028.7 in Calm     87 % 0.0 in 0.0 W/m2 CLR
21:15 10.3 °F 8.4 °F 1028.7 in Calm     88 % 0.0 in 0.0 W/m2 CLR
21:20 10.2 °F 8.3 °F 1028.7 in Calm     88 % 0.0 in 0.0 W/m2 CLR
21:25 10.1 °F 8.2 °F 1028.7 in Calm     88 % 0.0 in 0.0 W/m2 CLR
21:30 9.9 °F 8.1 °F 1029.0 in Calm     88 % 0.0 in 0.0 W/m2 CLR
21:35 9.8 °F 8.1 °F 1029.0 in Calm     89 % 0.0 in 0.0 W/m2 CLR
21:40 9.7 °F 8.0 °F 1029.0 in Calm     89 % 0.0 in 0.0 W/m2 CLR
21:45 9.6 °F 7.9 °F 1029.0 in Calm     89 % 0.0 in 0.0 W/m2 CLR
21:50 9.6 °F 7.8 °F 1029.0 in Calm     89 % 0.0 in 0.0 W/m2 CLR
21:55 9.4 °F 7.7 °F 1029.0 in Calm     89 % 0.0 in 0.0 W/m2 CLR
22:00 9.3 °F 7.8 °F 1029.0 in Calm     90 % 0.0 in 0.0 W/m2 CLR
22:05 9.3 °F 7.8 °F 1029.0 in Calm     90 % 0.0 in 0.0 W/m2 CLR
22:10 9.2 °F 7.7 °F 1029.0 in Calm     90 % 0.0 in 0.0 W/m2 CLR
22:15 9.1 °F 7.6 °F 1029.0 in Calm     90 % 0.0 in 0.0 W/m2 CLR
22:20 9.1 °F 7.6 °F 1029.3 in Calm     90 % 0.0 in 0.0 W/m2 CLR
22:25 9.2 °F 7.8 °F 1029.3 in Calm     91 % 0.0 in 0.0 W/m2 CLR
22:30 9.3 °F 7.9 °F 1029.3 in Calm     91 % 0.0 in 0.0 W/m2 CLR
22:35 9.3 °F 7.9 °F 1029.3 in Calm     91 % 0.0 in 0.0 W/m2 CLR
22:40 9.5 °F 8.1 °F 1029.3 in Calm     91 % 0.0 in 0.0 W/m2 CLR
22:45 9.6 °F 8.2 °F 1029.3 in Calm     91 % 0.0 in 0.0 W/m2 CLR
22:50 9.7 °F 8.3 °F 1029.3 in Calm     91 % 0.0 in 0.0 W/m2 CLR
22:55 9.7 °F 8.2 °F 1029.7 in Calm     90 % 0.0 in 0.0 W/m2 CLR
23:00 9.6 °F 7.9 °F 1029.7 in Calm     89 % 0.0 in 0.0 W/m2 CLR
23:05 9.4 °F 7.7 °F 1029.3 in Calm     89 % 0.0 in 0.0 W/m2 CLR
23:10 9.3 °F 7.6 °F 1029.3 in Calm     89 % 0.0 in 0.0 W/m2 CLR
23:15 9.3 °F 7.8 °F 1029.3 in Calm     90 % 0.0 in 0.0 W/m2 CLR
23:20 9.4 °F 7.9 °F 1029.3 in Calm     90 % 0.0 in 0.0 W/m2 CLR
23:25 9.6 °F 8.0 °F 1029.7 in Calm     90 % 0.0 in 0.0 W/m2 CLR
23:30 9.7 °F 8.2 °F 1029.7 in Calm     90 % 0.0 in 0.0 W/m2 CLR
23:35 9.9 °F 8.2 °F 1029.7 in Calm     89 % 0.0 in 0.0 W/m2 CLR
23:40 10.2 °F 8.5 °F 1029.7 in Calm     89 % 0.0 in 0.0 W/m2 CLR
23:45 10.3 °F 8.4 °F 1029.7 in WSW 1.9 mph   88 % 0.0 in 0.0 W/m2 CLR
23:50 10.3 °F 8.2 °F 1029.7 in SW 3.7 mph   87 % 0.0 in 0.0 W/m2 CLR
23:55 9.9 °F 7.9 °F 1029.7 in WSW 9.3 mph 9.3 mph 87 % 0.0 in 0.0 W/m2 CLR
Lo Temps de Massalio
Compliments of Weather Underground - 1.25 mb